sensor_id;sensor_type;location;lat;lon;timestamp;temperature;humidity
23495;DHT22;26107;50.832;2.950;2023-09-12T00:03:08;19.70;99.90
23495;DHT22;26107;50.832;2.950;2023-09-12T00:18:11;19.90;99.90
23495;DHT22;26107;50.832;2.950;2023-09-12T00:33:12;19.40;99.90
23495;DHT22;26107;50.832;2.950;2023-09-12T00:48:14;19.70;99.90
23495;DHT22;26107;50.832;2.950;2023-09-12T01:03:15;18.50;99.90
23495;DHT22;26107;50.832;2.950;2023-09-12T01:18:15;19.10;99.90
23495;DHT22;26107;50.832;2.950;2023-09-12T01:33:16;19.00;99.90
23495;DHT22;26107;50.832;2.950;2023-09-12T01:48:18;18.50;99.90
23495;DHT22;26107;50.832;2.950;2023-09-12T02:03:19;18.40;99.90
23495;DHT22;26107;50.832;2.950;2023-09-12T02:18:20;18.40;99.90
23495;DHT22;26107;50.832;2.950;2023-09-12T02:33:21;18.30;99.90
23495;DHT22;26107;50.832;2.950;2023-09-12T02:48:21;18.30;99.90
23495;DHT22;26107;50.832;2.950;2023-09-12T03:03:22;18.60;99.90
23495;DHT22;26107;50.832;2.950;2023-09-12T03:18:22;18.70;99.90
23495;DHT22;26107;50.832;2.950;2023-09-12T03:33:23;18.70;99.90
23495;DHT22;26107;50.832;2.950;2023-09-12T03:48:23;19.00;99.90
23495;DHT22;26107;50.832;2.950;2023-09-12T04:03:24;19.10;99.90
23495;DHT22;26107;50.832;2.950;2023-09-12T04:18:24;18.90;99.90
23495;DHT22;26107;50.832;2.950;2023-09-12T04:33:25;18.60;99.90
23495;DHT22;26107;50.832;2.950;2023-09-12T04:48:25;18.60;99.90
23495;DHT22;26107;50.832;2.950;2023-09-12T05:03:28;18.80;99.90
23495;DHT22;26107;50.832;2.950;2023-09-12T05:18:29;18.70;99.90
23495;DHT22;26107;50.832;2.950;2023-09-12T05:33:29;18.40;99.90
23495;DHT22;26107;50.832;2.950;2023-09-12T05:48:30;18.20;99.90
23495;DHT22;26107;50.832;2.950;2023-09-12T06:03:30;18.40;99.90
23495;DHT22;26107;50.832;2.950;2023-09-12T06:18:31;18.60;99.90
23495;DHT22;26107;50.832;2.950;2023-09-12T06:33:35;18.60;99.90
23495;DHT22;26107;50.832;2.950;2023-09-12T06:48:35;18.80;99.90
23495;DHT22;26107;50.832;2.950;2023-09-12T07:03:36;18.70;99.90
23495;DHT22;26107;50.832;2.950;2023-09-12T07:18:36;18.20;99.90
23495;DHT22;26107;50.832;2.950;2023-09-12T07:33:37;18.90;99.90
23495;DHT22;26107;50.832;2.950;2023-09-12T07:48:40;19.10;99.90
23495;DHT22;26107;50.832;2.950;2023-09-12T08:03:43;19.20;99.90
23495;DHT22;26107;50.832;2.950;2023-09-12T08:18:43;18.80;99.90
23495;DHT22;26107;50.832;2.950;2023-09-12T08:33:44;19.20;99.90
23495;DHT22;26107;50.832;2.950;2023-09-12T08:48:44;19.70;99.90
23495;DHT22;26107;50.832;2.950;2023-09-12T09:03:46;19.50;99.90
23495;DHT22;26107;50.832;2.950;2023-09-12T09:33:50;19.80;99.90
23495;DHT22;26107;50.832;2.950;2023-09-12T09:48:53;20.10;99.90
23495;DHT22;26107;50.832;2.950;2023-09-12T10:03:57;19.70;99.90
23495;DHT22;26107;50.832;2.950;2023-09-12T10:19:13;19.90;99.90
23495;DHT22;26107;50.832;2.950;2023-09-12T10:34:15;20.00;99.90
23495;DHT22;26107;50.832;2.950;2023-09-12T10:49:16;20.10;99.90
23495;DHT22;26107;50.832;2.950;2023-09-12T11:19:21;20.30;99.90
23495;DHT22;26107;50.832;2.950;2023-09-12T11:34:26;21.10;99.90
23495;DHT22;26107;50.832;2.950;2023-09-12T11:49:36;21.60;99.90
23495;DHT22;26107;50.832;2.950;2023-09-12T12:04:37;22.20;99.90
23495;DHT22;26107;50.832;2.950;2023-09-12T12:19:38;22.50;99.90
23495;DHT22;26107;50.832;2.950;2023-09-12T12:34:41;22.70;99.90
23495;DHT22;26107;50.832;2.950;2023-09-12T12:49:41;23.00;99.90
23495;DHT22;26107;50.832;2.950;2023-09-12T13:04:43;23.70;99.90
23495;DHT22;26107;50.832;2.950;2023-09-12T13:19:44;23.80;99.90
23495;DHT22;26107;50.832;2.950;2023-09-12T13:34:45;23.80;99.90
23495;DHT22;26107;50.832;2.950;2023-09-12T13:49:45;24.30;99.90
23495;DHT22;26107;50.832;2.950;2023-09-12T14:04:48;24.00;99.90
23495;DHT22;26107;50.832;2.950;2023-09-12T14:19:48;24.00;99.90
23495;DHT22;26107;50.832;2.950;2023-09-12T14:34:49;24.60;99.90
23495;DHT22;26107;50.832;2.950;2023-09-12T14:49:49;23.80;99.90
23495;DHT22;26107;50.832;2.950;2023-09-12T15:04:50;23.60;99.90
23495;DHT22;26107;50.832;2.950;2023-09-12T15:19:50;23.40;99.90
23495;DHT22;26107;50.832;2.950;2023-09-12T15:34:56;23.40;99.90
23495;DHT22;26107;50.832;2.950;2023-09-12T15:49:58;22.30;99.90
23495;DHT22;26107;50.832;2.950;2023-09-12T16:04:59;20.60;99.90
23495;DHT22;26107;50.832;2.950;2023-09-12T16:20:02;21.00;99.90
23495;DHT22;26107;50.832;2.950;2023-09-12T16:35:03;21.00;99.90
23495;DHT22;26107;50.832;2.950;2023-09-12T16:50:05;21.20;99.90
23495;DHT22;26107;50.832;2.950;2023-09-12T17:05:08;21.60;99.90
23495;DHT22;26107;50.832;2.950;2023-09-12T17:20:08;22.00;99.90
23495;DHT22;26107;50.832;2.950;2023-09-12T17:35:11;21.80;99.90
23495;DHT22;26107;50.832;2.950;2023-09-12T17:50:12;21.50;99.90
23495;DHT22;26107;50.832;2.950;2023-09-12T18:05:15;21.20;99.90
23495;DHT22;26107;50.832;2.950;2023-09-12T18:20:16;21.10;99.90
23495;DHT22;26107;50.832;2.950;2023-09-12T18:35:17;21.60;99.90
23495;DHT22;26107;50.832;2.950;2023-09-12T18:50:21;21.70;99.90
23495;DHT22;26107;50.832;2.950;2023-09-12T19:05:21;21.60;99.90
23495;DHT22;26107;50.832;2.950;2023-09-12T19:20:24;20.90;99.90
23495;DHT22;26107;50.832;2.950;2023-09-12T19:35:26;21.30;99.90
23495;DHT22;26107;50.832;2.950;2023-09-12T19:50:29;21.20;99.90
23495;DHT22;26107;50.832;2.950;2023-09-12T20:05:29;20.80;99.90
23495;DHT22;26107;50.832;2.950;2023-09-12T20:20:30;20.20;99.90
23495;DHT22;26107;50.832;2.950;2023-09-12T20:35:34;19.80;99.90
23495;DHT22;26107;50.832;2.950;2023-09-12T20:50:34;20.30;99.90
23495;DHT22;26107;50.832;2.950;2023-09-12T21:05:37;19.80;99.90
23495;DHT22;26107;50.832;2.950;2023-09-12T21:20:38;19.50;99.90
23495;DHT22;26107;50.832;2.950;2023-09-12T21:35:39;19.40;99.90
23495;DHT22;26107;50.832;2.950;2023-09-12T21:50:39;19.40;99.90
23495;DHT22;26107;50.832;2.950;2023-09-12T22:05:40;19.10;99.90
23495;DHT22;26107;50.832;2.950;2023-09-12T22:20:43;19.20;99.90
23495;DHT22;26107;50.832;2.950;2023-09-12T22:35:51;18.50;99.90
23495;DHT22;26107;50.832;2.950;2023-09-12T22:50:52;18.80;99.90
23495;DHT22;26107;50.832;2.950;2023-09-12T23:05:53;18.90;99.90
23495;DHT22;26107;50.832;2.950;2023-09-12T23:20:55;18.80;99.90
23495;DHT22;26107;50.832;2.950;2023-09-12T23:35:56;18.60;99.90
23495;DHT22;26107;50.832;2.950;2023-09-12T23:50:59;18.30;99.90
